Time;durP1;ratioP1;P1;durP2;ratioP2;P2;SDS_P1;SDS_P2;PMS_P1;PMS_P2;Temp;Humidity;BMP_temperature;BMP_pressure;BME280_temperature;BME280_humidity;BME280_pressure;Samples;Min_cycle;Max_cycle;Signal;HPM_P1;HPM_P2
2023/01/17 00:00:33;;;;;;;;;;;;;;;0.98;100.00;94114.22;5062693;28;19916;-74
2023/01/17 00:02:58;;;;;;;;;;;;;;;1.05;100.00;94109.69;5046588;28;19935;-74
2023/01/17 00:10:57;;;;;;;;;;;;;;;1.09;100.00;94115.13;5063693;28;19917;-74
2023/01/17 00:13:22;;;;;;;;;;;;;;;0.99;100.00;94123.84;5041022;28;20425;-74
2023/01/17 00:15:47;;;;;;;;;;;;;;;0.97;100.00;94118.06;5062967;28;20010;-74
2023/01/17 00:18:13;;;;;;;;;;;;;;;0.94;100.00;94120.34;5059344;28;19922;-74
2023/01/17 00:26:13;;;;;;;;;;;;;;;0.70;100.00;94120.81;5048653;28;20285;-73
2023/01/17 01:35:17;;;;;;;;;;;;;;;0.83;100.00;94097.91;5034744;28;20304;-73
2023/01/17 01:37:42;;;;;;;;;;;;;;;0.84;100.00;94098.66;5049371;28;20011;-72
2023/01/17 01:40:08;;;;;;;;;;;;;;;0.74;100.00;94108.94;5037812;28;20280;-74
2023/01/17 01:42:33;;;;;;;;;;;;;;;0.72;100.00;94097.78;5060471;28;19920;-73
2023/01/17 01:44:59;;;;;;;;;;;;;;;0.73;100.00;94095.84;5044732;28;20054;-73
2023/01/17 01:47:27;;;;;;;;;;;;;;;0.76;100.00;94103.97;5028276;28;19925;-72
2023/01/17 01:49:52;;;;;;;;;;;;;;;0.78;100.00;94100.16;5057267;28;20389;-72
2023/01/17 01:52:19;;;;;;;;;;;;;;;0.77;100.00;94102.03;5056800;28;19974;-71
2023/01/17 01:54:54;;;;;;;;;;;;;;;0.64;100.00;94106.13;5062067;28;19923;-72
2023/01/17 01:57:21;;;;;;;;;;;;;;;0.65;100.00;94111.16;5021920;28;19962;-72
2023/01/17 01:59:50;;;;;;;;;;;;;;;0.68;100.00;94112.31;5061784;28;19945;-72
2023/01/17 02:02:15;;;;;;;;;;;;;;;0.72;100.00;94108.53;5040806;28;20370;-72
2023/01/17 02:04:41;;;;;;;;;;;;;;;0.65;100.00;94108.47;5044261;28;19927;-72
2023/01/17 02:07:13;;;;;;;;;;;;;;;0.59;100.00;94103.75;5038219;28;19920;-72
2023/01/17 02:09:39;;;;;;;;;;;;;;;0.52;100.00;94097.16;5061145;28;19974;-71
2023/01/17 02:12:05;;;;;;;;;;;;;;;0.49;100.00;94089.78;5058316;28;19917;-72
2023/01/17 02:14:30;;;;;;;;;;;;;;;0.43;100.00;94090.47;5061930;28;20353;-72
2023/01/17 02:17:22;;;;;;;;;;;;;;;0.35;100.00;94082.28;5043173;28;19923;-72
2023/01/17 02:19:51;;;;;;;;;;;;;;;0.34;100.00;94090.72;5061622;28;20305;-72
2023/01/17 02:22:34;;;;;;;;;;;;;;;0.27;100.00;94080.66;5039083;28;19916;-72
2023/01/17 02:25:23;;;;;;;;;;;;;;;0.17;100.00;94087.44;5061795;28;19920;-71
2023/01/17 02:28:08;;;;;;;;;;;;;;;0.12;100.00;94097.75;5012531;28;20023;-72
2023/01/17 02:30:54;;;;;;;;;;;;;;;0.02;100.00;94088.38;5044103;28;19923;-72
2023/01/17 02:33:25;;;;;;;;;;;;;;;-0.04;100.00;94087.94;5039159;28;19917;-73
2023/01/17 02:36:11;;;;;;;;;;;;;;;0.13;100.00;94083.94;5045315;28;20285;-73
2023/01/17 02:38:45;;;;;;;;;;;;;;;0.17;100.00;94089.34;5045796;28;20362;-73
2023/01/17 02:41:26;;;;;;;;;;;;;;;0.31;100.00;94080.72;5040753;28;20313;-72
2023/01/17 02:43:52;;;;;;;;;;;;;;;0.39;100.00;94076.94;5045393;28;20333;-71
2023/01/17 02:46:18;;;;;;;;;;;;;;;0.63;100.00;94075.72;5026286;28;19924;-72
2023/01/17 02:48:44;;;;;;;;;;;;;;;0.55;100.00;94079.47;5038454;28;19963;-72
2023/01/17 02:51:15;;;;;;;;;;;;;;;0.40;100.00;94083.09;5043452;28;20046;-72
2023/01/17 02:53:47;;;;;;;;;;;;;;;0.17;100.00;94078.59;5046920;28;19952;-72
2023/01/17 02:56:29;;;;;;;;;;;;;;;0.08;100.00;94078.84;5058736;28;19920;-72
2023/01/17 02:59:14;;;;;;;;;;;;;;;-0.10;100.00;94073.22;5064369;28;20339;-73
2023/01/17 03:01:42;;;;;;;;;;;;;;;-0.22;100.00;94071.53;5064390;28;19920;-72
2023/01/17 03:04:11;;;;;;;;;;;;;;;-0.16;100.00;94069.28;5025890;28;19924;-72
2023/01/17 03:06:39;;;;;;;;;;;;;;;-0.19;100.00;94075.38;5031217;28;19966;-72
2023/01/17 03:09:05;;;;;;;;;;;;;;;-0.23;100.00;94077.25;5060020;28;19916;-73
2023/01/17 03:11:30;;;;;;;;;;;;;;;-0.24;100.00;94076.47;5064615;28;19920;-72
2023/01/17 03:13:56;;;;;;;;;;;;;;;-0.28;100.00;94072.94;5065568;28;19921;-72
2023/01/17 03:16:22;;;;;;;;;;;;;;;-0.36;100.00;94065.94;5041064;28;20345;-72
2023/01/17 03:18:48;;;;;;;;;;;;;;;-0.43;100.00;94066.59;5047090;28;19928;-72
2023/01/17 03:21:13;;;;;;;;;;;;;;;-0.51;100.00;94058.75;5060214;28;19917;-70
2023/01/17 03:23:38;;;;;;;;;;;;;;;-0.45;100.00;94063.47;5030269;28;19960;-71
2023/01/17 03:26:04;;;;;;;;;;;;;;;-0.40;100.00;94071.25;5041656;28;19920;-72
2023/01/17 03:28:29;;;;;;;;;;;;;;;-0.27;100.00;94069.13;5064383;28;20512;-71
2023/01/17 03:30:54;;;;;;;;;;;;;;;-0.30;100.00;94071.78;5048755;28;19917;-71
2023/01/17 03:33:20;;;;;;;;;;;;;;;-0.33;100.00;94078.63;5058009;28;19927;-71
2023/01/17 03:35:46;;;;;;;;;;;;;;;-0.30;100.00;94066.41;5062914;28;19917;-72
2023/01/17 03:38:12;;;;;;;;;;;;;;;-0.36;100.00;94071.31;5064814;28;19920;-72
2023/01/17 03:40:37;;;;;;;;;;;;;;;-0.40;100.00;94067.75;5076810;28;20023;-72
2023/01/17 03:43:02;;;;;;;;;;;;;;;-0.51;100.00;94053.38;5044116;28;19920;-73
2023/01/17 03:45:28;;;;;;;;;;;;;;;-0.63;100.00;94060.50;5058332;28;19940;-73
2023/01/17 03:47:55;;;;;;;;;;;;;;;-0.66;100.00;94055.84;5017810;28;19939;-73
2023/01/17 03:50:21;;;;;;;;;;;;;;;-0.74;100.00;94048.78;5058844;28;19923;-72
2023/01/17 03:52:46;;;;;;;;;;;;;;;-0.63;100.00;94054.34;5064510;28;19921;-73
2023/01/17 03:55:11;;;;;;;;;;;;;;;-0.47;100.00;94052.31;5041872;28;20008;-71
2023/01/17 03:57:36;;;;;;;;;;;;;;;-0.36;100.00;94059.75;5069752;28;19905;-70
2023/01/17 04:00:02;;;;;;;;;;;;;;;-0.26;100.00;94054.53;5068814;28;19905;-75
2023/01/17 04:02:27;;;;;;;;;;;;;;;-0.12;100.00;94048.59;5048842;28;19929;-72
2023/01/17 04:04:53;;;;;;;;;;;;;;;-0.09;100.00;94050.56;5062774;28;19921;-73
2023/01/17 04:07:19;;;;;;;;;;;;;;;-0.02;100.00;94055.25;5041088;28;19920;-72
2023/01/17 04:09:44;;;;;;;;;;;;;;;-0.11;100.00;94044.78;5064335;28;19951;-72
2023/01/17 04:12:09;;;;;;;;;;;;;;;-0.03;100.00;94049.09;5041141;28;19948;-72
2023/01/17 04:14:35;;;;;;;;;;;;;;;-0.02;100.00;94053.34;5046406;28;20011;-71
2023/01/17 04:17:02;;;;;;;;;;;;;;;-0.06;100.00;94046.34;5045934;28;19971;-73
2023/01/17 04:19:28;;;;;;;;;;;;;;;-0.13;100.00;94049.72;5042589;28;19916;-71
2023/01/17 04:21:54;;;;;;;;;;;;;;;-0.17;100.00;94045.44;5046566;28;19920;-71
2023/01/17 04:24:19;;;;;;;;;;;;;;;-0.20;100.00;94046.94;5036322;28;19949;-72
2023/01/17 04:26:44;;;;;;;;;;;;;;;-0.26;100.00;94045.69;5058261;28;19916;-71
2023/01/17 04:29:10;;;;;;;;;;;;;;;-0.15;100.00;94040.47;5048212;28;20393;-71
2023/01/17 04:31:35;;;;;;;;;;;;;;;-0.35;100.00;94032.50;5028996;28;19921;-72
2023/01/17 04:34:00;;;;;;;;;;;;;;;-0.53;100.00;94029.53;5043632;28;20408;-72
2023/01/17 04:36:25;;;;;;;;;;;;;;;-0.64;100.00;94026.69;5020301;28;19932;-72
2023/01/17 04:38:51;;;;;;;;;;;;;;;-0.61;100.00;94028.66;5026346;28;19952;-71
2023/01/17 04:41:16;;;;;;;;;;;;;;;-0.69;100.00;94015.47;5020546;28;19917;-72
2023/01/17 04:43:41;;;;;;;;;;;;;;;-0.83;100.00;94024.06;5008804;28;19968;-72
2023/01/17 04:46:09;;;;;;;;;;;;;;;-1.06;100.00;94021.38;5029148;28;20111;-72
2023/01/17 04:48:35;;;;;;;;;;;;;;;-1.30;100.00;94017.88;5037051;28;19924;-71
2023/01/17 04:51:01;;;;;;;;;;;;;;;-1.39;100.00;94020.81;5063159;28;20447;-73
2023/01/17 04:53:26;;;;;;;;;;;;;;;-1.51;100.00;94018.28;5056939;28;19970;-72
2023/01/17 04:55:51;;;;;;;;;;;;;;;-1.65;100.00;94020.69;5044637;28;19916;-72
2023/01/17 04:58:16;;;;;;;;;;;;;;;-1.83;100.00;94017.66;5040203;28;20342;-72
2023/01/17 05:00:42;;;;;;;;;;;;;;;-1.74;100.00;94027.03;5045684;28;19923;-72
2023/01/17 05:03:07;;;;;;;;;;;;;;;-1.80;100.00;94027.66;5040808;28;20018;-71
2023/01/17 05:05:32;;;;;;;;;;;;;;;-1.93;100.00;94024.34;5045088;28;20397;-72
2023/01/17 05:07:58;;;;;;;;;;;;;;;-1.95;100.00;94021.25;5062612;28;19920;-73
2023/01/17 05:10:24;;;;;;;;;;;;;;;-1.99;100.00;94013.13;5038768;28;20744;-72
2023/01/17 05:12:53;;;;;;;;;;;;;;;-2.16;100.00;94000.09;5061170;28;19924;-71
2023/01/17 05:15:18;;;;;;;;;;;;;;;-2.20;100.00;94002.72;5056045;28;19921;-70
2023/01/17 05:17:43;;;;;;;;;;;;;;;-2.28;100.00;94000.25;5062366;28;19939;-69
2023/01/17 05:20:09;;;;;;;;;;;;;;;-2.25;100.00;93996.84;5056578;28;19962;-70
2023/01/17 05:22:34;;;;;;;;;;;;;;;-2.34;100.00;94011.25;5062388;28;20385;-70
2023/01/17 05:24:59;;;;;;;;;;;;;;;-2.39;100.00;94006.16;5062530;28;20030;-70
2023/01/17 05:27:25;;;;;;;;;;;;;;;-2.27;100.00;94009.84;5057551;28;19947;-70
2023/01/17 05:29:51;;;;;;;;;;;;;;;-2.36;100.00;94004.66;5054713;28;19999;-70
2023/01/17 05:32:16;;;;;;;;;;;;;;;-2.42;100.00;94006.84;5038315;28;20400;-70
2023/01/17 05:34:41;;;;;;;;;;;;;;;-2.34;100.00;94015.81;5042640;28;19970;-70
2023/01/17 05:37:06;;;;;;;;;;;;;;;-2.41;100.00;94016.44;5018562;28;19921;-69
2023/01/17 05:39:32;;;;;;;;;;;;;;;-2.50;100.00;94023.91;5042892;28;19928;-69
2023/01/17 05:41:58;;;;;;;;;;;;;;;-2.52;100.00;94021.56;5042394;28;19925;-69
2023/01/17 05:44:23;;;;;;;;;;;;;;;-2.48;100.00;94015.50;5037609;28;20251;-69
2023/01/17 05:46:48;;;;;;;;;;;;;;;-2.50;100.00;94016.63;5031020;28;19920;-69
2023/01/17 05:49:14;;;;;;;;;;;;;;;-2.49;100.00;94020.09;5049003;28;20028;-69
2023/01/17 05:51:39;;;;;;;;;;;;;;;-2.54;100.00;94015.00;5061852;28;20022;-68
2023/01/17 05:54:05;;;;;;;;;;;;;;;-2.59;100.00;94002.66;5060175;28;19921;-69
2023/01/17 05:56:30;;;;;;;;;;;;;;;-2.66;100.00;93989.09;5066072;28;19920;-69
2023/01/17 05:58:55;;;;;;;;;;;;;;;-2.64;100.00;93994.88;5043744;28;19924;-72
2023/01/17 06:01:21;;;;;;;;;;;;;;;-2.64;100.00;93994.09;5058425;28;20417;-73
2023/01/17 06:03:46;;;;;;;;;;;;;;;-2.64;100.00;93991.44;5065347;28;19963;-73
2023/01/17 06:06:12;;;;;;;;;;;;;;;-2.61;100.00;93985.34;5069516;28;19920;-73
2023/01/17 06:08:37;;;;;;;;;;;;;;;-2.70;100.00;93980.19;5076566;28;19960;-71
2023/01/17 06:11:02;;;;;;;;;;;;;;;-2.68;100.00;93988.66;5052747;28;19916;-73
2023/01/17 06:13:28;;;;;;;;;;;;;;;-2.64;100.00;93980.72;5067835;28;19954;-70
2023/01/17 06:15:56;;;;;;;;;;;;;;;-2.59;100.00;93975.06;5061958;28;19920;-73
2023/01/17 06:18:21;;;;;;;;;;;;;;;-2.55;100.00;93970.56;5022474;28;19928;-73
2023/01/17 06:20:51;;;;;;;;;;;;;;;-2.63;100.00;93971.53;5062775;28;19931;-73
2023/01/17 06:23:16;;;;;;;;;;;;;;;-2.65;100.00;93971.09;5039572;28;20007;-71
2023/01/17 06:25:43;;;;;;;;;;;;;;;-2.63;100.00;93966.97;5043819;28;20003;-71
2023/01/17 06:28:08;;;;;;;;;;;;;;;-2.65;100.00;93971.09;5056284;28;19920;-70
2023/01/17 06:30:34;;;;;;;;;;;;;;;-2.49;100.00;93966.47;5030434;28;19924;-71
2023/01/17 06:33:00;;;;;;;;;;;;;;;-2.33;100.00;93969.88;5024129;28;19920;-69
2023/01/17 06:35:25;;;;;;;;;;;;;;;-2.21;100.00;93966.31;5018768;28;20024;-70
2023/01/17 06:37:51;;;;;;;;;;;;;;;-2.17;100.00;93963.72;5023736;28;19917;-72
2023/01/17 06:40:17;;;;;;;;;;;;;;;-2.21;100.00;93960.97;5037479;28;19917;-71
2023/01/17 06:42:42;;;;;;;;;;;;;;;-2.25;100.00;93962.78;5041684;28;19927;-71
2023/01/17 06:45:08;;;;;;;;;;;;;;;-2.22;100.00;93959.38;5018663;28;19927;-69
2023/01/17 06:47:36;;;;;;;;;;;;;;;-2.16;100.00;93959.88;5014506;28;19917;-71
2023/01/17 06:50:02;;;;;;;;;;;;;;;-2.22;100.00;93955.94;5039614;28;19983;-71
2023/01/17 06:52:27;;;;;;;;;;;;;;;-2.23;100.00;93955.16;5058573;28;19959;-70
2023/01/17 06:54:52;;;;;;;;;;;;;;;-2.18;100.00;93943.38;5061164;28;19999;-71
2023/01/17 06:57:18;;;;;;;;;;;;;;;-2.17;100.00;93936.91;5056255;28;19920;-71
2023/01/17 06:59:43;;;;;;;;;;;;;;;-2.09;100.00;93941.25;5061217;28;19916;-73
2023/01/17 07:02:09;;;;;;;;;;;;;;;-2.02;100.00;93941.41;5056263;28;20301;-71
2023/01/17 07:04:35;;;;;;;;;;;;;;;-1.99;100.00;93942.59;5061135;28;19924;-71
2023/01/17 07:07:00;;;;;;;;;;;;;;;-1.98;100.00;93944.16;5060703;28;19931;-71
2023/01/17 07:09:25;;;;;;;;;;;;;;;-1.88;100.00;93935.53;5055606;28;19917;-72
2023/01/17 07:11:58;;;;;;;;;;;;;;;-1.77;100.00;93935.75;5062193;28;19955;-72
2023/01/17 07:14:23;;;;;;;;;;;;;;;-1.73;100.00;93923.94;5039195;28;20298;-72
2023/01/17 07:16:48;;;;;;;;;;;;;;;-1.68;100.00;93916.72;5065214;28;19916;-71
2023/01/17 07:19:14;;;;;;;;;;;;;;;-1.66;100.00;93907.19;5060112;28;19939;-72
2023/01/17 07:21:39;;;;;;;;;;;;;;;-1.60;100.00;93897.72;5047891;28;19947;-71
2023/01/17 07:24:05;;;;;;;;;;;;;;;-1.57;100.00;93896.22;5058964;28;19924;-72
2023/01/17 07:26:30;;;;;;;;;;;;;;;-1.54;100.00;93887.47;5075510;28;19916;-71
2023/01/17 07:28:56;;;;;;;;;;;;;;;-1.46;100.00;93902.56;5079235;28;19926;-71
2023/01/17 07:31:22;;;;;;;;;;;;;;;-1.43;100.00;93901.06;5038052;28;20028;-72
2023/01/17 07:33:47;;;;;;;;;;;;;;;-1.36;100.00;93918.06;5026941;28;19983;-72
2023/01/17 07:36:12;;;;;;;;;;;;;;;-1.29;100.00;93914.72;5039084;28;19921;-71
2023/01/17 07:38:38;;;;;;;;;;;;;;;-1.23;100.00;93915.97;5044650;28;19932;-70
2023/01/17 07:41:03;;;;;;;;;;;;;;;-1.20;100.00;93914.47;5040837;28;19936;-71
2023/01/17 07:43:28;;;;;;;;;;;;;;;-1.18;100.00;93907.59;5024988;28;19931;-70
2023/01/17 07:45:54;;;;;;;;;;;;;;;-1.15;100.00;93914.19;5044955;28;20275;-72
2023/01/17 07:48:20;;;;;;;;;;;;;;;-1.16;100.00;93912.63;5017053;28;20007;-71
2023/01/17 07:50:53;;;;;;;;;;;;;;;-1.08;100.00;93911.59;5064291;28;19924;-72
2023/01/17 07:53:18;;;;;;;;;;;;;;;-0.72;100.00;93914.84;5075386;28;19955;-71
2023/01/17 07:55:43;;;;;;;;;;;;;;;-0.90;100.00;93905.72;5074137;28;19982;-70
2023/01/17 07:58:10;;;;;;;;;;;;;;;-1.04;100.00;93904.38;5059879;28;19921;-71
2023/01/17 08:00:35;;;;;;;;;;;;;;;-1.13;100.00;93903.06;5047676;28;19920;-72
2023/01/17 08:03:00;;;;;;;;;;;;;;;-1.14;100.00;93888.09;5064008;28;20015;-72
2023/01/17 08:05:26;;;;;;;;;;;;;;;-1.13;100.00;93900.38;5058078;28;19927;-70
2023/01/17 08:07:52;;;;;;;;;;;;;;;-1.11;100.00;93892.75;5063757;28;20446;-70
2023/01/17 08:10:17;;;;;;;;;;;;;;;-1.07;100.00;93888.97;5058667;28;19920;-70
2023/01/17 08:12:44;;;;;;;;;;;;;;;-1.05;100.00;93891.31;5046102;28;20340;-73
2023/01/17 08:15:09;;;;;;;;;;;;;;;-1.01;100.00;93886.75;5058346;28;19960;-72
2023/01/17 08:17:35;;;;;;;;;;;;;;;-0.77;100.00;93889.03;5063854;28;20378;-72
2023/01/17 08:20:00;;;;;;;;;;;;;;;-0.78;100.00;93882.09;5046020;28;19920;-70
2023/01/17 08:22:25;;;;;;;;;;;;;;;-0.83;100.00;93881.63;5024519;28;19990;-71
2023/01/17 08:24:51;;;;;;;;;;;;;;;-0.89;100.00;93869.66;5063481;28;19921;-72
2023/01/17 08:27:16;;;;;;;;;;;;;;;-0.87;100.00;93872.75;5058096;28;19931;-72
2023/01/17 08:29:45;;;;;;;;;;;;;;;-0.81;100.00;93868.59;5042239;28;19917;-72
2023/01/17 08:32:11;;;;;;;;;;;;;;;-0.74;100.00;93857.94;5021652;28;19920;-70
2023/01/17 08:34:36;;;;;;;;;;;;;;;-0.60;100.00;93862.75;5044390;28;19921;-72
2023/01/17 08:37:01;;;;;;;;;;;;;;;-0.56;100.00;93865.47;5031630;28;19925;-72
2023/01/17 08:39:27;;;;;;;;;;;;;;;-0.48;100.00;93862.53;5049139;28;19936;-70
2023/01/17 08:41:52;;;;;;;;;;;;;;;-0.60;100.00;93852.75;5049571;28;19916;-73
2023/01/17 08:44:18;;;;;;;;;;;;;;;-0.64;100.00;93843.13;5042280;28;19951;-70
2023/01/17 08:46:44;;;;;;;;;;;;;;;-0.60;100.00;93825.13;5031645;28;19959;-71
2023/01/17 08:49:10;;;;;;;;;;;;;;;-0.51;100.00;93817.53;5047882;28;19971;-70
2023/01/17 08:51:35;;;;;;;;;;;;;;;-0.45;100.00;93810.72;5045826;28;20011;-72
2023/01/17 08:54:00;;;;;;;;;;;;;;;-0.39;100.00;93793.09;5062869;28;19970;-70
2023/01/17 08:56:26;;;;;;;;;;;;;;;-0.36;100.00;93783.53;5058118;28;19952;-70
2023/01/17 08:58:51;;;;;;;;;;;;;;;-0.29;100.00;93778.25;5062218;28;19923;-71
2023/01/17 09:01:17;;;;;;;;;;;;;;;-0.31;100.00;93785.88;5056844;28;19922;-71
2023/01/17 09:03:42;;;;;;;;;;;;;;;-0.31;100.00;93777.03;5061891;28;20316;-72
2023/01/17 09:06:09;;;;;;;;;;;;;;;-0.23;100.00;93786.75;5057933;28;19947;-70
2023/01/17 09:08:34;;;;;;;;;;;;;;;-0.20;100.00;93786.78;5061968;28;19917;-71
2023/01/17 09:11:04;;;;;;;;;;;;;;;-0.17;100.00;93789.88;5060957;28;19977;-72
2023/01/17 09:13:29;;;;;;;;;;;;;;;-0.08;100.00;93788.44;5025757;28;19971;-73
2023/01/17 09:15:55;;;;;;;;;;;;;;;-0.05;100.00;93790.38;5062825;28;19920;-71
2023/01/17 09:18:20;;;;;;;;;;;;;;;0.15;100.00;93792.88;5039524;28;20312;-72
2023/01/17 09:20:45;;;;;;;;;;;;;;;0.14;100.00;93783.25;5062323;28;20379;-71
2023/01/17 09:23:11;;;;;;;;;;;;;;;0.14;100.00;93783.25;5039293;28;19924;-72
2023/01/17 09:25:38;;;;;;;;;;;;;;;0.03;100.00;93779.69;5061556;28;20376;-72
2023/01/17 09:28:04;;;;;;;;;;;;;;;-0.06;100.00;93764.59;5058744;28;19916;-73
2023/01/17 09:30:29;;;;;;;;;;;;;;;-0.10;100.00;93761.13;5033881;28;19990;-72
2023/01/17 09:32:54;;;;;;;;;;;;;;;-0.09;100.00;93760.00;5043155;28;19921;-72
2023/01/17 09:35:20;;;;;;;;;;;;;;;0.01;100.00;93766.59;5037280;28;19920;-72
2023/01/17 09:37:49;;;;;;;;;;;;;;;0.08;100.00;93771.28;5024366;28;19923;-72
2023/01/17 09:40:20;;;;;;;;;;;;;;;0.11;100.00;93765.13;5038754;28;19968;-71
2023/01/17 09:42:49;;;;;;;;;;;;;;;0.16;100.00;93772.88;5042872;28;19967;-71
2023/01/17 09:45:16;;;;;;;;;;;;;;;0.30;100.00;93766.84;5019700;28;19917;-70
2023/01/17 09:47:43;;;;;;;;;;;;;;;0.35;100.00;93761.88;5050550;28;20300;-70
2023/01/17 09:50:19;;;;;;;;;;;;;;;0.37;100.00;93764.97;5054908;28;19939;-72
2023/01/17 09:52:44;;;;;;;;;;;;;;;0.22;100.00;93749.06;5050006;28;19924;-72
2023/01/17 09:55:16;;;;;;;;;;;;;;;0.13;100.00;93754.81;5036877;28;19920;-73
2023/01/17 09:57:46;;;;;;;;;;;;;;;0.23;100.00;93756.03;5021757;28;19964;-72
2023/01/17 10:00:17;;;;;;;;;;;;;;;0.27;100.00;93741.47;5016630;28;20394;-72
2023/01/17 10:02:49;;;;;;;;;;;;;;;0.25;100.00;93746.41;5004330;28;20036;-72
2023/01/17 10:05:15;;;;;;;;;;;;;;;0.36;100.00;93744.59;5017038;28;19921;-71
2023/01/17 10:08:06;;;;;;;;;;;;;;;0.31;100.00;93741.50;5022720;28;19918;-73
2023/01/17 10:10:34;;;;;;;;;;;;;;;0.26;100.00;93736.44;4999263;28;19925;-72
2023/01/17 10:13:15;;;;;;;;;;;;;;;0.13;100.00;93725.97;5015827;28;19925;-72
2023/01/17 10:16:00;;;;;;;;;;;;;;;0.19;100.00;93721.00;5041153;28;19928;-72
2023/01/17 10:18:28;;;;;;;;;;;;;;;0.31;100.00;93723.41;5019935;28;19924;-72
2023/01/17 10:20:56;;;;;;;;;;;;;;;0.34;100.00;93719.97;5039934;28;19921;-72
2023/01/17 10:23:42;;;;;;;;;;;;;;;0.44;100.00;93720.41;5003872;28;20747;-73
2023/01/17 10:26:10;;;;;;;;;;;;;;;0.54;100.00;93717.81;5019568;28;19920;-72
2023/01/17 10:28:50;;;;;;;;;;;;;;;0.79;100.00;93714.47;5041718;28;19917;-71
2023/01/17 10:31:22;;;;;;;;;;;;;;;0.68;100.00;93716.31;5037439;28;19917;-71
2023/01/17 10:33:48;;;;;;;;;;;;;;;0.60;100.00;93706.69;5042739;28;20508;-72
2023/01/17 10:36:17;;;;;;;;;;;;;;;0.67;100.00;93693.25;5020749;28;19932;-70
2023/01/17 10:38:44;;;;;;;;;;;;;;;0.73;100.00;93691.72;5043577;28;20384;-72
2023/01/17 10:41:15;;;;;;;;;;;;;;;0.79;100.00;93697.53;5037527;28;19916;-72
2023/01/17 10:43:44;;;;;;;;;;;;;;;0.63;100.00;93687.84;5042223;28;20409;-72
2023/01/17 10:46:14;;;;;;;;;;;;;;;0.53;100.00;93685.84;5039901;28;19924;-74
2023/01/17 10:48:45;;;;;;;;;;;;;;;0.57;100.00;93682.00;5060302;28;20004;-72
2023/01/17 10:51:13;;;;;;;;;;;;;;;0.65;100.00;93687.44;5039807;28;19917;-72
2023/01/17 10:53:57;;;;;;;;;;;;;;;0.69;100.00;93690.94;5052028;28;20007;-73
2023/01/17 10:56:25;;;;;;;;;;;;;;;0.74;100.00;93691.34;5043638;28;20394;-72
2023/01/17 10:59:00;;;;;;;;;;;;;;;0.84;100.00;93692.56;5041097;28;19924;-73
2023/01/17 11:01:26;;;;;;;;;;;;;;;0.88;100.00;93696.06;5030276;28;19924;-71
2023/01/17 11:03:53;;;;;;;;;;;;;;;1.01;100.00;93691.09;5051816;28;19920;-73
2023/01/17 11:06:25;;;;;;;;;;;;;;;1.08;100.00;93685.75;5028423;28;19920;-73
2023/01/17 11:08:52;;;;;;;;;;;;;;;1.16;100.00;93683.06;5050218;28;19917;-73
2023/01/17 11:11:19;;;;;;;;;;;;;;;1.22;100.00;93670.75;5023672;28;19917;-72
2023/01/17 11:13:49;;;;;;;;;;;;;;;1.31;100.00;93671.97;5035496;28;19916;-72
2023/01/17 11:16:22;;;;;;;;;;;;;;;1.39;100.00;93661.97;5032219;28;19917;-71
2023/01/17 11:19:03;;;;;;;;;;;;;;;1.41;100.00;93659.66;5040445;28;20142;-72
2023/01/17 11:21:28;;;;;;;;;;;;;;;1.34;100.00;93657.69;5059295;28;19924;-71
2023/01/17 11:23:57;;;;;;;;;;;;;;;1.27;100.00;93641.50;5051689;28;19909;-71
2023/01/17 11:26:27;;;;;;;;;;;;;;;1.41;100.00;93634.59;5042340;28;20400;-71
2023/01/17 11:29:11;;;;;;;;;;;;;;;1.47;100.00;93619.59;5051260;28;19916;-71
2023/01/17 11:31:37;;;;;;;;;;;;;;;1.43;100.00;93611.50;5027868;28;20294;-72
2023/01/17 11:34:25;;;;;;;;;;;;;;;1.41;100.00;93610.34;5026904;28;19917;-73
2023/01/17 11:37:07;;;;;;;;;;;;;;;1.41;100.00;93610.34;5025671;28;19920;-73
2023/01/17 11:39:33;;;;;;;;;;;;;;;1.42;100.00;93603.78;5045537;28;19917;-73
2023/01/17 11:41:58;;;;;;;;;;;;;;;1.46;100.00;93599.16;5045089;28;19917;-74
2023/01/17 11:44:24;;;;;;;;;;;;;;;1.44;100.00;93601.47;5041230;28;19940;-72
2023/01/17 11:47:08;;;;;;;;;;;;;;;1.49;99.86;93593.75;5045033;28;19917;-74
2023/01/17 11:49:34;;;;;;;;;;;;;;;1.48;99.25;93581.44;5045574;28;19921;-73
2023/01/17 11:52:01;;;;;;;;;;;;;;;1.51;97.42;93572.59;5027499;28;19917;-73
2023/01/17 11:54:38;;;;;;;;;;;;;;;1.56;97.36;93567.97;5030107;28;19932;-73
2023/01/17 11:57:05;;;;;;;;;;;;;;;1.67;96.98;93561.41;5040461;28;19964;-74
2023/01/17 11:59:33;;;;;;;;;;;;;;;1.70;94.22;93544.44;5026758;28;20015;-71
2023/01/17 12:02:17;;;;;;;;;;;;;;;1.74;95.64;93541.75;5043789;28;19927;-72
2023/01/17 12:04:46;;;;;;;;;;;;;;;1.77;94.89;93537.50;5044319;28;19928;-73
2023/01/17 12:07:33;;;;;;;;;;;;;;;1.79;95.33;93533.25;5040604;28;19931;-70
2023/01/17 12:10:19;;;;;;;;;;;;;;;1.79;93.65;93529.78;5049512;28;19920;-72
2023/01/17 12:15:59;;;;;;;;;;;;;;;1.81;92.04;93522.09;5025421;28;19925;-73
2023/01/17 12:18:30;;;;;;;;;;;;;;;1.86;92.04;93521.69;5007263;28;20375;-73
2023/01/17 12:21:10;;;;;;;;;;;;;;;1.88;92.10;93530.16;5009925;28;19917;-73
2023/01/17 12:23:50;;;;;;;;;;;;;;;2.12;90.49;93541.31;5043367;28;19928;-73
2023/01/17 12:26:26;;;;;;;;;;;;;;;2.10;89.75;93531.66;5049978;28;19917;-74
2023/01/17 12:28:57;;;;;;;;;;;;;;;2.12;89.59;93517.00;5063429;28;20270;-71
2023/01/17 12:31:35;;;;;;;;;;;;;;;1.97;87.94;93505.47;5042984;28;20711;-72
2023/01/17 12:34:00;;;;;;;;;;;;;;;1.99;87.20;93497.75;5044129;28;19921;-72
2023/01/17 12:36:32;;;;;;;;;;;;;;;1.95;85.81;93494.31;5026100;28;19980;-73
2023/01/17 12:39:01;;;;;;;;;;;;;;;1.98;83.32;93485.41;5044869;28;19948;-73
2023/01/17 12:41:33;;;;;;;;;;;;;;;1.98;82.88;93490.81;5039273;28;20023;-73
2023/01/17 12:43:59;;;;;;;;;;;;;;;2.01;81.91;93480.00;5043529;28;19925;-72
2023/01/17 12:46:37;;;;;;;;;;;;;;;1.92;83.40;93466.16;5038088;28;20453;-73
2023/01/17 12:49:03;;;;;;;;;;;;;;;1.96;85.63;93455.34;5049831;28;20478;-75
2023/01/17 12:51:36;;;;;;;;;;;;;;;1.94;81.74;93444.94;5061093;28;19917;-71
2023/01/17 12:54:11;;;;;;;;;;;;;;;1.93;80.85;93424.50;5062580;28;20377;-74
2023/01/17 12:56:39;;;;;;;;;;;;;;;1.91;81.18;93411.41;5062801;28;19916;-73
2023/01/17 12:59:18;;;;;;;;;;;;;;;1.95;79.85;93424.88;5058421;28;19978;-71
2023/01/17 13:01:56;;;;;;;;;;;;;;;1.92;80.01;93431.06;5063234;28;19920;-73
2023/01/17 13:04:24;;;;;;;;;;;;;;;1.93;80.95;93438.00;5036879;28;19964;-73
2023/01/17 13:06:52;;;;;;;;;;;;;;;1.87;80.66;93432.25;5042893;28;19917;-73
2023/01/17 13:09:20;;;;;;;;;;;;;;;1.89;82.23;93432.63;5022251;28;20305;-73
2023/01/17 13:11:49;;;;;;;;;;;;;;;1.86;82.21;93433.41;5025383;28;20011;-72
2023/01/17 13:14:14;;;;;;;;;;;;;;;1.92;82.84;93425.66;5019558;28;20529;-74
2023/01/17 13:16:49;;;;;;;;;;;;;;;1.91;82.09;93421.44;5016631;28;20007;-72
2023/01/17 13:19:18;;;;;;;;;;;;;;;1.91;83.92;93424.16;5039295;28;19917;-72
2023/01/17 13:21:45;;;;;;;;;;;;;;;1.88;82.46;93422.22;5043839;28;19952;-74
2023/01/17 13:24:35;;;;;;;;;;;;;;;1.93;83.91;93424.50;5032017;28;20082;-72
2023/01/17 13:27:03;;;;;;;;;;;;;;;1.87;83.66;93404.47;5057405;28;20309;-73
2023/01/17 13:29:28;;;;;;;;;;;;;;;1.86;84.15;93406.41;5066021;28;19916;-73
2023/01/17 13:32:03;;;;;;;;;;;;;;;1.83;83.03;93417.22;5063493;28;20374;-73
2023/01/17 13:34:47;;;;;;;;;;;;;;;1.81;81.57;93414.16;5041236;28;19923;-73
2023/01/17 13:37:18;;;;;;;;;;;;;;;1.81;81.98;93417.59;5058093;28;20381;-72
2023/01/17 13:39:57;;;;;;;;;;;;;;;1.80;81.82;93423.38;5062809;28;19917;-72
2023/01/17 13:42:35;;;;;;;;;;;;;;;1.85;83.10;93409.50;5056215;28;20359;-72
2023/01/17 13:45:05;;;;;;;;;;;;;;;1.85;80.76;93404.09;5062091;28;19928;-72
2023/01/17 13:47:31;;;;;;;;;;;;;;;1.81;81.72;93423.00;5055014;28;19920;-72
2023/01/17 13:49:57;;;;;;;;;;;;;;;1.86;82.33;93429.94;5061332;28;19998;-73
2023/01/17 13:52:22;;;;;;;;;;;;;;;2.04;80.78;93427.19;5068219;28;19947;-73
2023/01/17 13:54:51;;;;;;;;;;;;;;;2.09;80.82;93411.34;5070698;28;19921;-73
2023/01/17 13:57:31;;;;;;;;;;;;;;;1.98;81.14;93391.72;5063983;28;20324;-72
2023/01/17 14:00:22;;;;;;;;;;;;;;;1.88;81.64;93398.69;5045897;28;19943;-72
2023/01/17 14:02:48;;;;;;;;;;;;;;;1.67;83.02;93404.16;5062586;28;20360;-72
2023/01/17 14:05:16;;;;;;;;;;;;;;;1.77;81.79;93416.84;5045160;28;20309;-73
2023/01/17 14:07:51;;;;;;;;;;;;;;;1.83;82.25;93404.47;5042863;28;19924;-73
2023/01/17 14:10:31;;;;;;;;;;;;;;;1.72;81.08;93404.53;5037340;28;20008;-73